Airfield :
LOGIN :

Register | Disclaimer

   EN    FR    IT 

 










Legend :    VFR   Marginal VFR   IFR   Intensive IFR   Very Intensive IFR
Visi :
Ceiling :
>= 8 km
>= 3000ft
5 to 8 km
1000 to 3000 ft
1500m to 5 km
500 to 1000 ft
800 to 1500m
200 to 500 ft
< 800m
< 200 ft
Symbols :   Thunderstorms  Fog  Heavy snow  Heavy precipitations  Wind > 20 kt
SIGMETs :     Misc.  Thunderstorms  Icing  Turbulence  Mountain Waves  Volcanic Ashes






- Airport Elevation : 160 ft
- IATA code : LRT


LFRH - Lorient Lann Bihoue

CURRENT METAR :
  • 270700Z AUTO 27008KT 5000 BR SCT002 OVC007 10/10 Q1016 TEMPO 0500 FG VV///

EXPIRED METARs :
  • 270630Z AUTO 26009KT 4000 0900 R25/P2000 R07/1100U BCFG VV/// 10/10 Q1017 TEMPO BKN003 BECMG 8000 NSW
  • 270600Z AUTO 27008KT 9999 FEW002 OVC008 10/10 Q1016 TEMPO BKN003
  • 270530Z AUTO 26008KT 3600 1000 R25/P2000 R07/1400D BR VV/// 10/10 Q1017 TEMPO BKN003 BECMG 8000 NSW
  • 270500Z AUTO 27005KT 240V300 9999 SCT005 OVC011 10/10 Q1016 TEMPO 0500 RA FG VV///
  • 270430Z AUTO 26005KT 240V310 9999 OVC008 10/10 Q1016 TEMPO 0500 RA FG VV///

TAF AMD TAF LFRH
Valid from the 27 at 06:00 until the 28 at 06:00 UTC


270636Z 2706/2806 28010KT 8000 BKN004 OVC007
TEMPO 2706/2710 0500 FG VV///
BECMG 2710/2712 22010KT 1500 RA OVC002
TEMPO 2712/2715 0700 FG VV///
BECMG 2715/2717 0700 FG VV///
BECMG 2721/2723 25015G25KT 8000 NSW OVC002



MET'MAP, your aeronautical weather chart ! - Copyright ORBIFLY December 2007 - Disclaimer

ORBIFLY MET'MAP TEAM :

Programming & Development : Alexandra Zaïnal
Concept & original design : Baudouin d'Aumeries
Assistance for programming : Marc-Olivier Méhu
Technical & hardware support : Manuel Goepfert

Contact : metmap@orbifly.com




SOURCES & CREDITS :

   NOAA